Morgantown, WV

3:10 PM EST on January 20, 2017 (GMT -0500)
Morgantown

Weather History for KMGW - January, 2003

Change the Weather History Date:

Monday, January 6, 2003

  Actual Average Record
Temperature  
Mean Temperature 26 °F 31 °F  
Max Temperature 32 °F 39 °F 72 °F (1946)
Min Temperature 21 °F 24 °F -4 °F (2014)
Degree Days  
Heating Degree Days 38 34  
Month to date heating degree days 201  
Since 1 July heating degree days 2185  
Cooling Degree Days 0 0  
Month to date cooling degree days 0  
Year to date cooling degree days 0  
Moisture  
Dew Point 28 °F    
Average Humidity 94    
Maximum Humidity 100    
Minimum Humidity 68    
Precipitation  
Precipitation 0.26 in 0.09 in 1.18 in (1950)
Month to date precipitation 0.54  
Year to date precipitation 0.54  
Sea Level Pressure  
Sea Level Pressure 30.00 in    
Wind  
Wind Speed 3 mph (WNW)    
Max Wind Speed 10 mph    
Max Gust Speed 21 mph    
Visibility 3 miles    
Events Fog , Snow    
T = Trace of Precipitation, MM = Missing Value Source: NWS Daily Summary

Daily Weather History Graph

Daily Weather History Graph

Search for Another Location

Airport or City:

Trip Planner

Search our weather history database for the weather conditions in past years. The results will help you decide how hot, cold, wet, or windy it might be!

Date:

Astronomy

Jan. 06, 2003 Rise Set
Actual Time 7:40 AM EST 5:10 PM EST
Civil Twilight 7:10 AM EST 5:40 PM EST
Nautical Twilight 6:37 AM EST 6:14 PM EST
Astronomical Twilight 6:04 AM EST 6:46 PM EST
Moon 10:35 AM EST (1/6) 9:15 PM EST (1/6)
Length of Visible Light 10h 29m
Length of Day
9h 29m
Waxing Crescent, 16% of the Moon is Illuminated
Jan 6
Waxing Crescent
Jan 10
First Quarter
Jan 18
Full
Jan 25
Last Quarter
Feb 1
New

Hourly Weather History & Observations

Time (EST) Temp. Windchill Dew Point Humidity Pressure Visibility Wind Dir Wind Speed Gust Speed Precip Events Conditions
12:00 AM 32.0 °F - 32.0 °F 100% 29.95 in 0.8 mi Calm Calm - N/A   Overcast
12:07 AM 32.0 °F - 32.0 °F 100% 29.95 in 1.0 mi Calm Calm - N/A   Overcast
12:41 AM 32.0 °F - 32.0 °F 100% 29.95 in 0.8 mi Calm Calm - 0.00 in   Overcast
12:53 AM 30.9 °F - 30.9 °F 100% 29.98 in 1.2 mi Calm Calm - 0.00 in Snow Light Snow
1:08 AM 32.0 °F - 32.0 °F 100% 29.95 in 0.8 mi Calm Calm - 0.00 in Snow Light Snow
1:27 AM 30.2 °F - 30.2 °F 100% 29.95 in 1.0 mi Calm Calm - 0.00 in Snow Light Snow
1:38 AM 32.0 °F - 32.0 °F 100% 29.95 in 0.8 mi Calm Calm - 0.00 in Snow Light Snow
1:53 AM 30.9 °F - 30.9 °F 100% 29.99 in 0.8 mi Calm Calm - 0.00 in Snow Light Snow
2:02 AM 30.2 °F - 30.2 °F 100% 29.96 in 1.0 mi Calm Calm - 0.00 in Snow Light Snow
2:20 AM 30.2 °F - 30.2 °F 100% 29.96 in 1.0 mi Calm Calm - 0.01 in Snow Light Snow
2:53 AM 30.9 °F - 30.9 °F 100% 30.00 in 1.0 mi Calm Calm - 0.01 in Snow Light Snow
3:13 AM 30.2 °F - 30.2 °F 100% 29.96 in 1.2 mi Calm Calm - 0.01 in Snow Light Snow
3:53 AM 30.9 °F 27.5 °F 30.9 °F 100% 30.00 in 1.5 mi West 3.5 mph - 0.01 in Snow Light Snow
4:04 AM 30.2 °F 25.4 °F 30.2 °F 100% 29.95 in 2.5 mi West 4.6 mph - 0.00 in Snow Light Snow
4:23 AM 30.2 °F - 30.2 °F 100% 29.95 in 1.8 mi Calm Calm - 0.01 in Snow Light Snow
4:30 AM 30.2 °F 26.7 °F 30.2 °F 100% 29.95 in 2.0 mi West 3.5 mph - 0.01 in Snow Light Snow
4:39 AM 30.2 °F 26.7 °F 30.2 °F 100% 29.96 in 1.8 mi West 3.5 mph - 0.01 in Snow Light Snow
4:53 AM 30.9 °F 27.5 °F 30.9 °F 100% 29.99 in 1.2 mi West 3.5 mph - 0.01 in Snow Light Snow
5:03 AM 30.2 °F - 30.2 °F 100% 29.95 in 2.0 mi Calm Calm - 0.00 in Snow Light Snow
5:09 AM 30.2 °F - 30.2 °F 100% 29.95 in 3.0 mi Calm Calm - 0.00 in Snow Light Snow
5:53 AM 30.9 °F 27.5 °F 30.9 °F 100% 29.99 in 4.0 mi West 3.5 mph - 0.01 in   Overcast
6:24 AM 30.2 °F - 30.2 °F 100% 29.95 in 7.0 mi Calm Calm - 0.00 in   Overcast
6:33 AM 30.2 °F 26.7 °F 30.2 °F 100% 29.95 in 7.0 mi West 3.5 mph - 0.00 in   Overcast
6:53 AM 30.9 °F - 30.9 °F 100% 29.99 in 6.0 mi Calm Calm - 0.00 in Snow Light Snow
7:02 AM 30.2 °F 26.7 °F 30.2 °F 100% 29.95 in 7.0 mi West 3.5 mph - 0.00 in Snow Light Snow
7:18 AM 30.2 °F 25.4 °F 30.2 °F 100% 29.95 in 8.0 mi West 4.6 mph - 0.00 in Snow Light Snow
7:53 AM 30.9 °F - 30.9 °F 100% 29.99 in 5.0 mi Calm Calm - 0.01 in Snow Light Snow
8:03 AM 30.2 °F 26.7 °F 30.2 °F 100% 29.96 in 1.5 mi West 3.5 mph - 0.00 in Snow Light Snow
8:16 AM 30.2 °F 26.7 °F 30.2 °F 100% 29.96 in 1.5 mi West 3.5 mph - 0.00 in Snow Light Snow
8:39 AM 30.2 °F - 30.2 °F 100% 29.96 in 2.0 mi Calm Calm - 0.00 in Snow Light Snow
8:53 AM 30.9 °F - 30.9 °F 100% 30.01 in 2.5 mi Calm Calm - 0.00 in Snow Light Snow
9:53 AM 30.9 °F 27.5 °F 30.9 °F 100% 30.00 in 1.5 mi West 3.5 mph - 0.02 in Snow Light Snow
10:07 AM 30.2 °F 26.7 °F 30.2 °F 100% 29.96 in 0.8 mi West 3.5 mph - 0.00 in Snow Light Snow
10:45 AM 32.0 °F 28.7 °F 32.0 °F 100% 29.96 in 1.2 mi West 3.5 mph - 0.03 in Snow Light Snow
10:53 AM 32.0 °F 27.5 °F 30.9 °F 96% 30.00 in 1.2 mi West 4.6 mph - 0.04 in Snow Light Snow
11:15 AM 32.0 °F 27.5 °F 30.2 °F 93% 29.95 in 0.8 mi WNW 4.6 mph - 0.02 in Snow Light Snow
11:22 AM 30.2 °F 26.7 °F 30.2 °F 100% 29.95 in 0.8 mi WNW 3.5 mph - 0.02 in Snow Light Snow
11:29 AM 32.0 °F 28.7 °F 32.0 °F 100% 29.95 in 1.0 mi WNW 3.5 mph - 0.03 in Snow Light Snow
11:44 AM 30.2 °F 26.7 °F 30.2 °F 100% 29.94 in 1.0 mi NW 3.5 mph - 0.04 in Snow Light Snow
11:53 AM 30.9 °F 25.2 °F 30.0 °F 96% 29.98 in 0.8 mi NW 5.8 mph - 0.04 in Snow Light Snow
12:01 PM 30.2 °F 25.4 °F 30.2 °F 100% 29.94 in 1.0 mi WNW 4.6 mph - 0.01 in Snow Light Snow
12:07 PM 30.2 °F 26.7 °F 30.2 °F 100% 29.94 in 0.8 mi NW 3.5 mph - 0.02 in Snow Light Snow
12:36 PM 30.2 °F 26.7 °F 30.2 °F 100% 29.94 in 1.0 mi Variable 3.5 mph - 0.04 in Snow Light Snow
12:46 PM 30.2 °F - 30.2 °F 100% 29.94 in 1.5 mi Calm Calm - 0.04 in Snow Light Snow
12:53 PM 30.9 °F - 30.0 °F 96% 29.98 in 1.2 mi Calm Calm - 0.05 in Snow Light Snow
1:00 PM 30.2 °F 22.6 °F 28.4 °F 93% 29.94 in 1.2 mi NW 8.1 mph - 0.01 in Snow Light Snow
1:18 PM 30.2 °F 25.4 °F 28.4 °F 93% 29.94 in 2.0 mi Variable 4.6 mph - 0.02 in Snow Light Snow
1:27 PM 30.2 °F 25.4 °F 28.4 °F 93% 29.94 in 5.0 mi Variable 4.6 mph - 0.03 in Snow Light Snow
1:38 PM 30.2 °F 24.3 °F 28.4 °F 93% 29.94 in 2.5 mi Variable 5.8 mph - 0.03 in Snow Light Snow
1:53 PM 30.0 °F 25.2 °F 28.0 °F 92% 29.98 in 1.2 mi Variable 4.6 mph - 0.04 in Snow Light Snow
2:02 PM 30.2 °F 24.3 °F 28.4 °F 93% 29.94 in 0.8 mi NW 5.8 mph - 0.00 in Snow Light Snow
2:04 PM 30.2 °F 26.7 °F 28.4 °F 93% 29.94 in 1.0 mi Variable 3.5 mph - 0.00 in Snow Light Snow
2:07 PM 30.2 °F 26.7 °F 28.4 °F 93% 29.94 in 1.2 mi Variable 3.5 mph - 0.00 in Snow Light Snow
2:18 PM 30.2 °F 25.4 °F 28.4 °F 93% 29.94 in 2.0 mi WNW 4.6 mph - 0.00 in Snow Light Snow
2:32 PM 30.2 °F 24.3 °F 26.6 °F 86% 29.94 in 2.5 mi Variable 5.8 mph - 0.01 in Snow Light Snow
2:53 PM 30.0 °F 26.5 °F 28.0 °F 92% 29.99 in 0.8 mi WNW 3.5 mph - 0.01 in Snow Light Snow
3:02 PM 30.2 °F 25.4 °F 28.4 °F 93% 29.96 in 1.5 mi WNW 4.6 mph - 0.00 in Snow Light Snow
3:14 PM 30.2 °F 24.3 °F 26.6 °F 86% 29.96 in 2.5 mi NW 5.8 mph - 0.00 in Snow Light Snow
3:29 PM 30.2 °F - 28.4 °F 93% 29.96 in 3.0 mi Calm Calm - 0.01 in Snow Light Snow
3:53 PM 30.0 °F 25.2 °F 28.0 °F 92% 30.01 in 1.5 mi NW 4.6 mph - 0.01 in Snow Light Snow
4:00 PM 30.2 °F 23.4 °F 26.6 °F 86% 29.98 in 3.0 mi Variable 6.9 mph - 0.00 in Snow Light Snow
4:15 PM 28.4 °F 21.2 °F 26.6 °F 93% 29.99 in 1.0 mi NW 6.9 mph - 0.00 in Snow Light Snow
4:25 PM 28.4 °F 23.3 °F 28.4 °F 100% 30.00 in 0.5 mi Variable 4.6 mph - 0.00 in Fog , Snow Light Snow
4:40 PM 28.4 °F 20.4 °F 24.8 °F 86% 30.00 in 9.0 mi NW 8.1 mph - 0.00 in Snow Light Snow
4:53 PM 28.9 °F 22.8 °F 26.1 °F 89% 30.05 in 5.0 mi WNW 5.8 mph - 0.00 in Snow Light Snow
5:00 PM 28.4 °F 19.7 °F 26.6 °F 93% 30.01 in 4.0 mi WNW 9.2 mph - 0.00 in Snow Light Snow
5:05 PM 28.4 °F 21.2 °F 26.6 °F 93% 30.01 in 1.8 mi Variable 6.9 mph - 0.00 in Snow Light Snow
5:17 PM 28.4 °F 20.4 °F 24.8 °F 86% 30.02 in 1.2 mi NW 8.1 mph - 0.00 in Snow Light Snow
5:29 PM 26.6 °F 19.1 °F 24.8 °F 93% 30.03 in 2.5 mi Variable 6.9 mph - 0.00 in Snow Light Snow
5:53 PM 27.0 °F 18.0 °F 23.0 °F 85% 30.09 in 3.0 mi NW 9.2 mph - 0.00 in Snow Light Snow
6:01 PM 26.6 °F 16.8 °F 23.0 °F 86% 30.05 in 2.0 mi NW 10.4 mph 16.1 mph N/A Snow Blowing Snow
6:34 PM 26.6 °F 18.2 °F 24.8 °F 93% 30.06 in 1.8 mi West 8.1 mph - N/A Snow Blowing Snow
6:53 PM 25.0 °F 17.1 °F 23.0 °F 92% 30.12 in 1.5 mi NW 6.9 mph - N/A Snow Blowing Snow
7:06 PM 24.8 °F 16.1 °F 23.0 °F 93% 30.09 in 2.0 mi NW 8.1 mph - N/A Snow Blowing Snow
7:33 PM 24.8 °F 16.9 °F 21.2 °F 86% 30.11 in 5.0 mi NW 6.9 mph - N/A Snow Blowing Snow
7:53 PM 25.0 °F 16.3 °F 18.0 °F 75% 30.16 in 7.0 mi NW 8.1 mph 20.7 mph N/A Snow Blowing Snow
8:01 PM 24.8 °F 15.3 °F 17.6 °F 74% 30.12 in 9.0 mi NW 9.2 mph - N/A Snow Blowing Snow
8:53 PM 24.1 °F 15.2 °F 16.0 °F 71% 30.19 in 10.0 mi NW 8.1 mph - N/A Snow Blowing Snow
9:35 PM 23.0 °F 15.8 °F 17.6 °F 80% 30.16 in 8.0 mi Variable 5.8 mph - N/A Snow Blowing Snow
9:53 PM 23.0 °F 13.9 °F 16.0 °F 74% 30.21 in 10.0 mi NW 8.1 mph - 0.00 in Snow Light Snow
10:53 PM 21.9 °F 13.4 °F 17.1 °F 82% 30.22 in 8.0 mi NW 6.9 mph - 0.00 in Snow Light Snow
11:00 PM 21.2 °F 12.6 °F 15.8 °F 80% 30.18 in 8.0 mi NW 6.9 mph - 0.00 in Snow Light Snow
11:24 PM 21.2 °F 10.9 °F 14.0 °F 74% 30.18 in 9.0 mi NW 9.2 mph - 0.00 in Snow Light Snow
11:53 PM 21.9 °F 11.7 °F 12.9 °F 68% 30.22 in 9.0 mi NW 9.2 mph - 0.00 in Snow Light Snow